Ro Fjord — LFEI — position and weather

sailwx.info

Track history (hours):
 
Tides and Currents Weather Stations Pressure Air Temp Water Temp Dewpoint Dewpoint Depression Visibility Wind Speed Wind Dir Waves Ship Positions

Ro Fjord

Last reported at 2017-Jan-11 01:24 UTC. Time now 2017-Jan-16 21:53 UTC.
Position N 59°51' E 005°33'.

Length 72 m; draft 6.5 m.

Type: Passenger vessel. MMSI: 257430000.

Date/timePositionNaut miles runAvg speedWind from/ knotsBaromVisibWave heightAir tempDewpointWater temp
2017-Jan-11 01:24N 59°51' E 005°33'1011.3
2017-Jan-11 00:33N 59°42' E 005°25'2410.3
2017-Jan-10 22:12N 59°18' E 005°20'711.2
2017-Jan-10 21:33N 59°11' E 005°22'9 9.0
2017-Jan-10 20:33N 59°09' E 005°39'9 9.0
2017-Jan-10 19:33N 59°07' E 005°56'0 0.0
2017-Jan-10 17:24N 59°07' E 005°56'0 0.1
2017-Jan-10 16:33N 59°07' E 005°56'0 0.0
2017-Jan-10 15:33N 59°07' E 005°56'0 0.0
2017-Jan-10 14:33N 59°07' E 005°56'0 0.1
2017-Jan-10 13:33N 59°07' E 005°56'10 8.9
2017-Jan-10 12:29N 59°09' E 005°38'9 9.4
2017-Jan-10 11:33N 59°09' E 005°20'4 1.4
2017-Jan-10 08:33N 59°14' E 005°21'  
2017-Jan-07 05:15N 59°17' E 005°45'810.7
2017-Jan-07 04:32N 59°12' E 005°34'7 6.5
2017-Jan-07 03:26N 59°12' E 005°20'5 0.6
2017-Jan-06 19:32N 59°17' E 005°19'9 9.2
2017-Jan-06 18:33N 59°09' E 005°26'10 0.4
2017-Jan-05 18:33N 59°15' E 005°42'1110.9
2017-Jan-05 17:33N 59°09' E 005°24'10 9.1
2017-Jan-05 16:29N 59°18' E 005°20'1010.8
2017-Jan-05 15:32N 59°28' E 005°13'1111.1
2017-Jan-05 14:33N 59°38' E 005°19'1210.3
2017-Jan-05 13:21N 59°48' E 005°34'  
Track history (hours):
 
Tides and Currents Weather Stations Pressure Air Temp Water Temp Dewpoint Dewpoint Depression Visibility Wind Speed Wind Dir Waves Ship Positions

Ro Fjord

Last reported at 2017-Jan-11 01:24 UTC. Time now 2017-Jan-16 21:53 UTC.
Position N 59°51' E 005°33'.

Length 72 m; draft 6.5 m.

Type: Passenger vessel. MMSI: 257430000.

Date/timePositionNaut miles runAvg speedWind from/ knotsBaromVisibWave heightAir tempDewpointWater temp
2017-Jan-11 01:24N 59°51' E 005°33'1011.3
2017-Jan-11 00:33N 59°42' E 005°25'2410.3
2017-Jan-10 22:12N 59°18' E 005°20'711.2
2017-Jan-10 21:33N 59°11' E 005°22'9 9.0
2017-Jan-10 20:33N 59°09' E 005°39'9 9.0
2017-Jan-10 19:33N 59°07' E 005°56'0 0.0
2017-Jan-10 17:24N 59°07' E 005°56'0 0.1
2017-Jan-10 16:33N 59°07' E 005°56'0 0.0
2017-Jan-10 15:33N 59°07' E 005°56'0 0.0
2017-Jan-10 14:33N 59°07' E 005°56'0 0.1
2017-Jan-10 13:33N 59°07' E 005°56'10 8.9
2017-Jan-10 12:29N 59°09' E 005°38'9 9.4
2017-Jan-10 11:33N 59°09' E 005°20'4 1.4
2017-Jan-10 08:33N 59°14' E 005°21'  
2017-Jan-07 05:15N 59°17' E 005°45'810.7
2017-Jan-07 04:32N 59°12' E 005°34'7 6.5
2017-Jan-07 03:26N 59°12' E 005°20'5 0.6
2017-Jan-06 19:32N 59°17' E 005°19'9 9.2
2017-Jan-06 18:33N 59°09' E 005°26'10 0.4
2017-Jan-05 18:33N 59°15' E 005°42'1110.9
2017-Jan-05 17:33N 59°09' E 005°24'10 9.1
2017-Jan-05 16:29N 59°18' E 005°20'1010.8
2017-Jan-05 15:32N 59°28' E 005°13'1111.1
2017-Jan-05 14:33N 59°38' E 005°19'1210.3
2017-Jan-05 13:21N 59°48' E 005°34'  

Dump ship's entire track history